sensor_id;sensor_type;location;lat;lon;timestamp;P1;durP1;ratioP1;P2;durP2;ratioP2
33413;SDS011;60055;41.884;12.534;2024-02-26T00:01:39;11.98;;;7.13;;
33413;SDS011;60055;41.884;12.534;2024-02-26T00:04:04;14.63;;;6.90;;
33413;SDS011;60055;41.884;12.534;2024-02-26T00:06:30;11.57;;;6.97;;
33413;SDS011;60055;41.884;12.534;2024-02-26T00:08:56;14.93;;;7.38;;
33413;SDS011;60055;41.884;12.534;2024-02-26T00:11:21;14.68;;;6.95;;
33413;SDS011;60055;41.884;12.534;2024-02-26T00:13:47;16.90;;;7.55;;
33413;SDS011;60055;41.884;12.534;2024-02-26T00:16:12;13.50;;;7.13;;
33413;SDS011;60055;41.884;12.534;2024-02-26T00:18:38;13.10;;;7.40;;
33413;SDS011;60055;41.884;12.534;2024-02-26T00:21:03;16.60;;;7.13;;
33413;SDS011;60055;41.884;12.534;2024-02-26T00:23:29;12.93;;;6.75;;
33413;SDS011;60055;41.884;12.534;2024-02-26T00:25:55;13.10;;;7.05;;
33413;SDS011;60055;41.884;12.534;2024-02-26T00:28:20;14.93;;;7.40;;
33413;SDS011;60055;41.884;12.534;2024-02-26T00:30:46;12.18;;;7.13;;
33413;SDS011;60055;41.884;12.534;2024-02-26T00:33:12;12.88;;;6.82;;
33413;SDS011;60055;41.884;12.534;2024-02-26T00:35:39;15.48;;;6.82;;
33413;SDS011;60055;41.884;12.534;2024-02-26T00:38:04;13.38;;;7.15;;
33413;SDS011;60055;41.884;12.534;2024-02-26T00:40:30;16.17;;;6.93;;
33413;SDS011;60055;41.884;12.534;2024-02-26T00:42:55;12.70;;;7.05;;
33413;SDS011;60055;41.884;12.534;2024-02-26T00:45:21;15.43;;;7.90;;
33413;SDS011;60055;41.884;12.534;2024-02-26T00:47:47;15.15;;;8.25;;
33413;SDS011;60055;41.884;12.534;2024-02-26T00:50:14;13.70;;;8.43;;
33413;SDS011;60055;41.884;12.534;2024-02-26T00:52:39;18.02;;;8.63;;
33413;SDS011;60055;41.884;12.534;2024-02-26T00:55:05;21.90;;;10.88;;
33413;SDS011;60055;41.884;12.534;2024-02-26T00:57:31;19.92;;;11.10;;
33413;SDS011;60055;41.884;12.534;2024-02-26T00:59:56;17.30;;;10.63;;
33413;SDS011;60055;41.884;12.534;2024-02-26T01:02:22;21.65;;;11.95;;
33413;SDS011;60055;41.884;12.534;2024-02-26T01:04:48;23.08;;;12.13;;
33413;SDS011;60055;41.884;12.534;2024-02-26T01:07:13;26.20;;;12.85;;
33413;SDS011;60055;41.884;12.534;2024-02-26T01:09:39;20.85;;;12.27;;
33413;SDS011;60055;41.884;12.534;2024-02-26T01:12:04;21.60;;;12.38;;
33413;SDS011;60055;41.884;12.534;2024-02-26T01:14:29;24.48;;;12.57;;
33413;SDS011;60055;41.884;12.534;2024-02-26T01:16:55;23.13;;;12.63;;
33413;SDS011;60055;41.884;12.534;2024-02-26T01:19:21;18.45;;;11.55;;
33413;SDS011;60055;41.884;12.534;2024-02-26T01:21:46;24.77;;;13.38;;
33413;SDS011;60055;41.884;12.534;2024-02-26T01:24:11;25.55;;;12.55;;
33413;SDS011;60055;41.884;12.534;2024-02-26T01:26:37;21.83;;;12.40;;
33413;SDS011;60055;41.884;12.534;2024-02-26T01:29:03;24.13;;;13.52;;
33413;SDS011;60055;41.884;12.534;2024-02-26T01:31:28;24.70;;;13.52;;
33413;SDS011;60055;41.884;12.534;2024-02-26T01:33:54;26.17;;;13.23;;
33413;SDS011;60055;41.884;12.534;2024-02-26T01:36:19;25.58;;;12.55;;
33413;SDS011;60055;41.884;12.534;2024-02-26T01:38:46;25.35;;;13.57;;
33413;SDS011;60055;41.884;12.534;2024-02-26T01:41:13;24.48;;;13.10;;
33413;SDS011;60055;41.884;12.534;2024-02-26T01:43:39;21.40;;;12.60;;
33413;SDS011;60055;41.884;12.534;2024-02-26T01:46:04;20.90;;;12.98;;
33413;SDS011;60055;41.884;12.534;2024-02-26T01:48:30;25.88;;;13.27;;
33413;SDS011;60055;41.884;12.534;2024-02-26T01:50:55;21.45;;;12.93;;
33413;SDS011;60055;41.884;12.534;2024-02-26T01:53:21;24.17;;;14.32;;
33413;SDS011;60055;41.884;12.534;2024-02-26T01:55:47;23.05;;;13.88;;
33413;SDS011;60055;41.884;12.534;2024-02-26T01:58:12;23.67;;;14.05;;
33413;SDS011;60055;41.884;12.534;2024-02-26T02:00:39;24.40;;;14.50;;
33413;SDS011;60055;41.884;12.534;2024-02-26T02:03:04;23.83;;;13.93;;
33413;SDS011;60055;41.884;12.534;2024-02-26T02:05:30;25.75;;;14.73;;
33413;SDS011;60055;41.884;12.534;2024-02-26T02:07:56;22.02;;;13.48;;
33413;SDS011;60055;41.884;12.534;2024-02-26T02:10:22;23.50;;;13.63;;
33413;SDS011;60055;41.884;12.534;2024-02-26T02:12:50;25.98;;;14.20;;
33413;SDS011;60055;41.884;12.534;2024-02-26T02:15:16;22.55;;;13.32;;
33413;SDS011;60055;41.884;12.534;2024-02-26T02:17:41;23.27;;;14.27;;
33413;SDS011;60055;41.884;12.534;2024-02-26T02:20:08;22.13;;;12.85;;
33413;SDS011;60055;41.884;12.534;2024-02-26T02:22:34;23.42;;;13.38;;
33413;SDS011;60055;41.884;12.534;2024-02-26T02:24:59;24.55;;;14.23;;
33413;SDS011;60055;41.884;12.534;2024-02-26T02:27:25;21.92;;;13.18;;
33413;SDS011;60055;41.884;12.534;2024-02-26T02:29:52;21.17;;;12.77;;
33413;SDS011;60055;41.884;12.534;2024-02-26T02:32:18;21.17;;;13.60;;
33413;SDS011;60055;41.884;12.534;2024-02-26T02:34:44;22.58;;;13.15;;
33413;SDS011;60055;41.884;12.534;2024-02-26T02:37:10;20.80;;;12.75;;
33413;SDS011;60055;41.884;12.534;2024-02-26T02:39:36;21.35;;;12.52;;
33413;SDS011;60055;41.884;12.534;2024-02-26T02:42:01;22.05;;;12.63;;
33413;SDS011;60055;41.884;12.534;2024-02-26T02:44:27;21.63;;;12.73;;
33413;SDS011;60055;41.884;12.534;2024-02-26T02:46:52;20.58;;;12.48;;
33413;SDS011;60055;41.884;12.534;2024-02-26T02:49:18;20.35;;;12.05;;
33413;SDS011;60055;41.884;12.534;2024-02-26T02:51:44;18.27;;;11.57;;
33413;SDS011;60055;41.884;12.534;2024-02-26T02:54:09;20.75;;;12.20;;
33413;SDS011;60055;41.884;12.534;2024-02-26T02:56:34;24.58;;;12.10;;
33413;SDS011;60055;41.884;12.534;2024-02-26T02:59:00;20.92;;;11.30;;
33413;SDS011;60055;41.884;12.534;2024-02-26T03:01:26;19.20;;;11.65;;
33413;SDS011;60055;41.884;12.534;2024-02-26T03:03:52;20.67;;;11.38;;
33413;SDS011;60055;41.884;12.534;2024-02-26T03:06:17;20.23;;;10.93;;
33413;SDS011;60055;41.884;12.534;2024-02-26T03:08:43;21.50;;;11.45;;
33413;SDS011;60055;41.884;12.534;2024-02-26T03:11:12;21.15;;;12.60;;
33413;SDS011;60055;41.884;12.534;2024-02-26T03:13:38;20.10;;;11.48;;
33413;SDS011;60055;41.884;12.534;2024-02-26T03:16:04;21.63;;;11.68;;
33413;SDS011;60055;41.884;12.534;2024-02-26T03:18:30;19.23;;;12.45;;
33413;SDS011;60055;41.884;12.534;2024-02-26T03:20:56;19.88;;;12.50;;
33413;SDS011;60055;41.884;12.534;2024-02-26T03:23:21;19.90;;;12.27;;
33413;SDS011;60055;41.884;12.534;2024-02-26T03:25:47;26.67;;;13.43;;
33413;SDS011;60055;41.884;12.534;2024-02-26T03:28:13;20.10;;;12.88;;
33413;SDS011;60055;41.884;12.534;2024-02-26T03:30:38;22.30;;;12.43;;
33413;SDS011;60055;41.884;12.534;2024-02-26T03:33:04;20.05;;;12.73;;
33413;SDS011;60055;41.884;12.534;2024-02-26T03:35:29;21.92;;;12.82;;
33413;SDS011;60055;41.884;12.534;2024-02-26T03:37:55;20.13;;;12.30;;
33413;SDS011;60055;41.884;12.534;2024-02-26T03:40:20;22.80;;;12.68;;
33413;SDS011;60055;41.884;12.534;2024-02-26T03:42:46;21.30;;;13.20;;
33413;SDS011;60055;41.884;12.534;2024-02-26T03:45:11;22.13;;;12.82;;
33413;SDS011;60055;41.884;12.534;2024-02-26T03:47:40;21.17;;;12.73;;
33413;SDS011;60055;41.884;12.534;2024-02-26T03:50:06;19.58;;;12.18;;
33413;SDS011;60055;41.884;12.534;2024-02-26T03:52:32;18.60;;;12.45;;
33413;SDS011;60055;41.884;12.534;2024-02-26T03:54:59;21.80;;;13.13;;
33413;SDS011;60055;41.884;12.534;2024-02-26T03:57:24;23.65;;;12.60;;
33413;SDS011;60055;41.884;12.534;2024-02-26T03:59:49;17.80;;;12.07;;
33413;SDS011;60055;41.884;12.534;2024-02-26T04:02:16;20.63;;;11.95;;
33413;SDS011;60055;41.884;12.534;2024-02-26T04:04:41;24.48;;;12.43;;
33413;SDS011;60055;41.884;12.534;2024-02-26T04:07:07;21.90;;;12.20;;
33413;SDS011;60055;41.884;12.534;2024-02-26T04:09:32;18.40;;;12.45;;
33413;SDS011;60055;41.884;12.534;2024-02-26T04:11:58;22.35;;;11.90;;
33413;SDS011;60055;41.884;12.534;2024-02-26T04:14:23;20.38;;;12.70;;
33413;SDS011;60055;41.884;12.534;2024-02-26T04:16:49;23.30;;;12.55;;
33413;SDS011;60055;41.884;12.534;2024-02-26T04:19:17;24.40;;;12.50;;
33413;SDS011;60055;41.884;12.534;2024-02-26T04:21:42;28.65;;;13.38;;
33413;SDS011;60055;41.884;12.534;2024-02-26T04:24:08;21.15;;;12.45;;
33413;SDS011;60055;41.884;12.534;2024-02-26T04:26:34;20.58;;;13.23;;
33413;SDS011;60055;41.884;12.534;2024-02-26T04:28:59;21.80;;;12.45;;
33413;SDS011;60055;41.884;12.534;2024-02-26T04:31:25;23.65;;;12.85;;
33413;SDS011;60055;41.884;12.534;2024-02-26T04:33:51;24.23;;;12.68;;
33413;SDS011;60055;41.884;12.534;2024-02-26T04:36:17;20.30;;;12.05;;
33413;SDS011;60055;41.884;12.534;2024-02-26T04:38:45;19.38;;;12.15;;
33413;SDS011;60055;41.884;12.534;2024-02-26T04:41:11;18.38;;;12.20;;
33413;SDS011;60055;41.884;12.534;2024-02-26T04:43:37;21.77;;;12.05;;
33413;SDS011;60055;41.884;12.534;2024-02-26T04:46:07;20.50;;;11.77;;
33413;SDS011;60055;41.884;12.534;2024-02-26T04:48:33;21.13;;;11.45;;
33413;SDS011;60055;41.884;12.534;2024-02-26T04:50:59;18.98;;;11.05;;
33413;SDS011;60055;41.884;12.534;2024-02-26T04:53:25;21.33;;;11.23;;
33413;SDS011;60055;41.884;12.534;2024-02-26T04:55:51;22.63;;;10.23;;
33413;SDS011;60055;41.884;12.534;2024-02-26T04:58:17;17.73;;;10.75;;
33413;SDS011;60055;41.884;12.534;2024-02-26T05:00:42;19.17;;;10.48;;
33413;SDS011;60055;41.884;12.534;2024-02-26T05:03:07;17.60;;;10.77;;
33413;SDS011;60055;41.884;12.534;2024-02-26T05:05:37;20.65;;;11.27;;
33413;SDS011;60055;41.884;12.534;2024-02-26T05:08:03;18.90;;;11.07;;
33413;SDS011;60055;41.884;12.534;2024-02-26T05:10:29;18.75;;;11.10;;
33413;SDS011;60055;41.884;12.534;2024-02-26T05:12:54;22.13;;;11.38;;
33413;SDS011;60055;41.884;12.534;2024-02-26T05:15:19;22.20;;;12.27;;
33413;SDS011;60055;41.884;12.534;2024-02-26T05:17:45;22.02;;;10.85;;
33413;SDS011;60055;41.884;12.534;2024-02-26T05:20:10;21.00;;;11.88;;
33413;SDS011;60055;41.884;12.534;2024-02-26T05:22:36;21.15;;;13.13;;
33413;SDS011;60055;41.884;12.534;2024-02-26T05:25:02;26.15;;;14.73;;
33413;SDS011;60055;41.884;12.534;2024-02-26T05:27:28;23.38;;;13.43;;
33413;SDS011;60055;41.884;12.534;2024-02-26T05:29:53;21.65;;;12.55;;
33413;SDS011;60055;41.884;12.534;2024-02-26T05:32:19;24.90;;;12.93;;
33413;SDS011;60055;41.884;12.534;2024-02-26T05:34:44;25.35;;;12.57;;
33413;SDS011;60055;41.884;12.534;2024-02-26T05:37:10;22.00;;;13.30;;
33413;SDS011;60055;41.884;12.534;2024-02-26T05:39:36;22.65;;;11.70;;
33413;SDS011;60055;41.884;12.534;2024-02-26T05:42:02;22.08;;;11.65;;
33413;SDS011;60055;41.884;12.534;2024-02-26T05:44:28;19.85;;;11.73;;
33413;SDS011;60055;41.884;12.534;2024-02-26T05:46:53;21.33;;;12.13;;
33413;SDS011;60055;41.884;12.534;2024-02-26T05:49:19;20.75;;;11.68;;
33413;SDS011;60055;41.884;12.534;2024-02-26T05:51:44;18.83;;;10.70;;
33413;SDS011;60055;41.884;12.534;2024-02-26T05:54:09;20.48;;;11.07;;
33413;SDS011;60055;41.884;12.534;2024-02-26T05:56:35;18.73;;;9.85;;
33413;SDS011;60055;41.884;12.534;2024-02-26T05:59:01;18.75;;;11.07;;
33413;SDS011;60055;41.884;12.534;2024-02-26T06:01:26;20.58;;;10.98;;
33413;SDS011;60055;41.884;12.534;2024-02-26T06:03:51;19.10;;;10.98;;
33413;SDS011;60055;41.884;12.534;2024-02-26T06:06:17;18.02;;;10.88;;
33413;SDS011;60055;41.884;12.534;2024-02-26T06:08:43;20.00;;;11.23;;
33413;SDS011;60055;41.884;12.534;2024-02-26T06:11:09;25.52;;;12.90;;
33413;SDS011;60055;41.884;12.534;2024-02-26T06:13:35;19.48;;;12.27;;
33413;SDS011;60055;41.884;12.534;2024-02-26T06:16:00;21.55;;;12.23;;
33413;SDS011;60055;41.884;12.534;2024-02-26T06:18:27;23.77;;;12.80;;
33413;SDS011;60055;41.884;12.534;2024-02-26T06:20:52;23.02;;;12.43;;
33413;SDS011;60055;41.884;12.534;2024-02-26T06:23:17;24.10;;;12.10;;
33413;SDS011;60055;41.884;12.534;2024-02-26T06:25:43;18.63;;;11.60;;
33413;SDS011;60055;41.884;12.534;2024-02-26T06:28:08;21.67;;;12.13;;
33413;SDS011;60055;41.884;12.534;2024-02-26T06:30:34;21.00;;;12.18;;
33413;SDS011;60055;41.884;12.534;2024-02-26T06:33:00;21.77;;;11.40;;
33413;SDS011;60055;41.884;12.534;2024-02-26T06:35:25;20.25;;;12.05;;
33413;SDS011;60055;41.884;12.534;2024-02-26T06:37:51;22.80;;;11.77;;
33413;SDS011;60055;41.884;12.534;2024-02-26T06:40:18;25.02;;;12.10;;
33413;SDS011;60055;41.884;12.534;2024-02-26T06:42:46;22.67;;;12.30;;
33413;SDS011;60055;41.884;12.534;2024-02-26T06:45:12;21.65;;;11.82;;
33413;SDS011;60055;41.884;12.534;2024-02-26T06:47:37;19.67;;;11.57;;
33413;SDS011;60055;41.884;12.534;2024-02-26T06:50:03;19.27;;;10.70;;
33413;SDS011;60055;41.884;12.534;2024-02-26T06:52:28;22.50;;;11.43;;
33413;SDS011;60055;41.884;12.534;2024-02-26T06:54:54;20.30;;;10.73;;
33413;SDS011;60055;41.884;12.534;2024-02-26T06:57:20;20.88;;;11.32;;
33413;SDS011;60055;41.884;12.534;2024-02-26T06:59:46;19.17;;;10.80;;
33413;SDS011;60055;41.884;12.534;2024-02-26T07:02:12;18.30;;;10.98;;
33413;SDS011;60055;41.884;12.534;2024-02-26T07:04:38;23.55;;;11.52;;
33413;SDS011;60055;41.884;12.534;2024-02-26T07:07:04;19.17;;;10.52;;
33413;SDS011;60055;41.884;12.534;2024-02-26T07:09:29;22.33;;;10.73;;
33413;SDS011;60055;41.884;12.534;2024-02-26T07:11:55;23.48;;;11.25;;
33413;SDS011;60055;41.884;12.534;2024-02-26T07:14:20;21.45;;;10.48;;
33413;SDS011;60055;41.884;12.534;2024-02-26T07:16:45;21.90;;;10.50;;
33413;SDS011;60055;41.884;12.534;2024-02-26T07:19:11;21.20;;;10.38;;
33413;SDS011;60055;41.884;12.534;2024-02-26T07:21:36;19.38;;;10.27;;
33413;SDS011;60055;41.884;12.534;2024-02-26T07:24:02;18.63;;;10.65;;
33413;SDS011;60055;41.884;12.534;2024-02-26T07:26:27;19.25;;;10.65;;
33413;SDS011;60055;41.884;12.534;2024-02-26T07:28:55;20.67;;;10.23;;
33413;SDS011;60055;41.884;12.534;2024-02-26T07:31:20;21.38;;;9.85;;
33413;SDS011;60055;41.884;12.534;2024-02-26T07:33:46;18.45;;;11.00;;
33413;SDS011;60055;41.884;12.534;2024-02-26T07:36:11;21.00;;;10.15;;
33413;SDS011;60055;41.884;12.534;2024-02-26T07:38:37;20.35;;;11.30;;
33413;SDS011;60055;41.884;12.534;2024-02-26T07:41:02;21.45;;;11.25;;
33413;SDS011;60055;41.884;12.534;2024-02-26T07:43:28;20.20;;;10.60;;
33413;SDS011;60055;41.884;12.534;2024-02-26T07:45:53;22.23;;;11.23;;
33413;SDS011;60055;41.884;12.534;2024-02-26T07:48:19;24.77;;;11.35;;
33413;SDS011;60055;41.884;12.534;2024-02-26T07:50:44;27.52;;;13.02;;
33413;SDS011;60055;41.884;12.534;2024-02-26T07:53:10;20.40;;;10.13;;
33413;SDS011;60055;41.884;12.534;2024-02-26T07:55:35;19.90;;;10.35;;
33413;SDS011;60055;41.884;12.534;2024-02-26T07:58:01;21.17;;;10.10;;
33413;SDS011;60055;41.884;12.534;2024-02-26T08:00:26;20.55;;;9.82;;
33413;SDS011;60055;41.884;12.534;2024-02-26T08:02:51;19.80;;;9.82;;
33413;SDS011;60055;41.884;12.534;2024-02-26T08:05:17;27.00;;;10.32;;
33413;SDS011;60055;41.884;12.534;2024-02-26T08:07:42;21.25;;;9.63;;
33413;SDS011;60055;41.884;12.534;2024-02-26T08:10:08;24.35;;;10.10;;
33413;SDS011;60055;41.884;12.534;2024-02-26T08:12:33;27.23;;;9.40;;
33413;SDS011;60055;41.884;12.534;2024-02-26T08:15:00;23.77;;;9.45;;
33413;SDS011;60055;41.884;12.534;2024-02-26T08:17:26;21.70;;;8.90;;
33413;SDS011;60055;41.884;12.534;2024-02-26T08:19:52;16.88;;;9.00;;
33413;SDS011;60055;41.884;12.534;2024-02-26T08:22:17;18.67;;;9.52;;
33413;SDS011;60055;41.884;12.534;2024-02-26T08:24:43;17.92;;;9.48;;
33413;SDS011;60055;41.884;12.534;2024-02-26T08:27:08;19.58;;;9.18;;
33413;SDS011;60055;41.884;12.534;2024-02-26T08:29:34;15.85;;;8.63;;
33413;SDS011;60055;41.884;12.534;2024-02-26T08:32:00;14.35;;;8.75;;
33413;SDS011;60055;41.884;12.534;2024-02-26T08:34:25;14.07;;;8.80;;
33413;SDS011;60055;41.884;12.534;2024-02-26T08:36:51;34.33;;;9.52;;
33413;SDS011;60055;41.884;12.534;2024-02-26T08:39:16;28.50;;;9.10;;
33413;SDS011;60055;41.884;12.534;2024-02-26T08:41:43;26.98;;;9.10;;
33413;SDS011;60055;41.884;12.534;2024-02-26T08:44:09;22.20;;;7.70;;
33413;SDS011;60055;41.884;12.534;2024-02-26T08:46:34;21.17;;;7.68;;
33413;SDS011;60055;41.884;12.534;2024-02-26T08:49:00;17.52;;;7.82;;
33413;SDS011;60055;41.884;12.534;2024-02-26T08:51:25;12.18;;;6.55;;
33413;SDS011;60055;41.884;12.534;2024-02-26T08:53:51;17.45;;;7.28;;
33413;SDS011;60055;41.884;12.534;2024-02-26T08:56:16;14.13;;;7.55;;
33413;SDS011;60055;41.884;12.534;2024-02-26T08:58:44;15.95;;;6.53;;
33413;SDS011;60055;41.884;12.534;2024-02-26T09:01:13;13.85;;;7.40;;
33413;SDS011;60055;41.884;12.534;2024-02-26T09:03:39;14.65;;;6.50;;
33413;SDS011;60055;41.884;12.534;2024-02-26T09:06:05;11.50;;;4.93;;
33413;SDS011;60055;41.884;12.534;2024-02-26T09:08:31;9.73;;;3.28;;
33413;SDS011;60055;41.884;12.534;2024-02-26T09:10:57;7.05;;;2.33;;
33413;SDS011;60055;41.884;12.534;2024-02-26T09:13:23;8.70;;;3.88;;
33413;SDS011;60055;41.884;12.534;2024-02-26T09:15:48;6.05;;;2.67;;
33413;SDS011;60055;41.884;12.534;2024-02-26T09:18:14;6.50;;;2.90;;
33413;SDS011;60055;41.884;12.534;2024-02-26T09:20:40;6.80;;;3.22;;
33413;SDS011;60055;41.884;12.534;2024-02-26T09:23:06;6.18;;;2.55;;
33413;SDS011;60055;41.884;12.534;2024-02-26T09:25:31;7.18;;;2.90;;
33413;SDS011;60055;41.884;12.534;2024-02-26T09:27:58;6.20;;;2.55;;
33413;SDS011;60055;41.884;12.534;2024-02-26T09:30:24;11.63;;;3.20;;
33413;SDS011;60055;41.884;12.534;2024-02-26T09:32:50;6.35;;;2.85;;
33413;SDS011;60055;41.884;12.534;2024-02-26T09:35:15;7.78;;;2.67;;
33413;SDS011;60055;41.884;12.534;2024-02-26T09:37:41;11.55;;;3.08;;
33413;SDS011;60055;41.884;12.534;2024-02-26T09:40:07;7.93;;;3.53;;
33413;SDS011;60055;41.884;12.534;2024-02-26T09:42:36;6.47;;;3.55;;
33413;SDS011;60055;41.884;12.534;2024-02-26T09:45:07;6.25;;;3.17;;
33413;SDS011;60055;41.884;12.534;2024-02-26T09:47:37;6.78;;;3.10;;
33413;SDS011;60055;41.884;12.534;2024-02-26T09:50:04;7.45;;;3.50;;
33413;SDS011;60055;41.884;12.534;2024-02-26T09:52:34;7.97;;;3.22;;
33413;SDS011;60055;41.884;12.534;2024-02-26T09:55:02;9.10;;;3.47;;
33413;SDS011;60055;41.884;12.534;2024-02-26T09:57:29;7.43;;;2.90;;
33413;SDS011;60055;41.884;12.534;2024-02-26T09:59:55;8.65;;;3.97;;
33413;SDS011;60055;41.884;12.534;2024-02-26T10:02:28;9.35;;;3.85;;
33413;SDS011;60055;41.884;12.534;2024-02-26T10:04:55;6.15;;;3.33;;
33413;SDS011;60055;41.884;12.534;2024-02-26T10:07:26;7.72;;;3.35;;
33413;SDS011;60055;41.884;12.534;2024-02-26T10:09:55;8.82;;;4.10;;
33413;SDS011;60055;41.884;12.534;2024-02-26T10:12:20;9.55;;;3.15;;
33413;SDS011;60055;41.884;12.534;2024-02-26T10:14:46;8.50;;;3.13;;
33413;SDS011;60055;41.884;12.534;2024-02-26T10:17:12;11.57;;;4.18;;
33413;SDS011;60055;41.884;12.534;2024-02-26T10:19:38;11.07;;;3.80;;
33413;SDS011;60055;41.884;12.534;2024-02-26T10:22:03;6.40;;;2.55;;
33413;SDS011;60055;41.884;12.534;2024-02-26T10:24:29;4.43;;;2.38;;
33413;SDS011;60055;41.884;12.534;2024-02-26T10:26:55;5.53;;;2.17;;
33413;SDS011;60055;41.884;12.534;2024-02-26T10:29:23;9.85;;;2.70;;
33413;SDS011;60055;41.884;12.534;2024-02-26T10:31:50;3.90;;;1.70;;
33413;SDS011;60055;41.884;12.534;2024-02-26T10:34:16;5.38;;;1.90;;
33413;SDS011;60055;41.884;12.534;2024-02-26T10:36:42;4.75;;;1.70;;
33413;SDS011;60055;41.884;12.534;2024-02-26T10:39:08;4.18;;;1.45;;
33413;SDS011;60055;41.884;12.534;2024-02-26T10:41:36;3.30;;;1.45;;
33413;SDS011;60055;41.884;12.534;2024-02-26T10:44:02;11.85;;;2.25;;
33413;SDS011;60055;41.884;12.534;2024-02-26T10:46:28;6.28;;;2.38;;
33413;SDS011;60055;41.884;12.534;2024-02-26T10:48:53;6.75;;;2.63;;
33413;SDS011;60055;41.884;12.534;2024-02-26T10:51:28;7.57;;;2.90;;
33413;SDS011;60055;41.884;12.534;2024-02-26T10:53:55;6.75;;;2.50;;
33413;SDS011;60055;41.884;12.534;2024-02-26T10:56:27;5.18;;;2.40;;
33413;SDS011;60055;41.884;12.534;2024-02-26T10:58:57;6.00;;;2.55;;
33413;SDS011;60055;41.884;12.534;2024-02-26T11:01:23;7.47;;;3.40;;
33413;SDS011;60055;41.884;12.534;2024-02-26T11:03:53;6.28;;;2.60;;
33413;SDS011;60055;41.884;12.534;2024-02-26T11:06:21;5.97;;;2.78;;
33413;SDS011;60055;41.884;12.534;2024-02-26T11:08:47;6.45;;;2.67;;
33413;SDS011;60055;41.884;12.534;2024-02-26T11:11:14;5.55;;;2.83;;
33413;SDS011;60055;41.884;12.534;2024-02-26T11:13:40;9.05;;;2.97;;
33413;SDS011;60055;41.884;12.534;2024-02-26T11:16:11;8.75;;;3.40;;
33413;SDS011;60055;41.884;12.534;2024-02-26T11:18:37;8.82;;;2.95;;
33413;SDS011;60055;41.884;12.534;2024-02-26T11:21:06;6.57;;;2.97;;
33413;SDS011;60055;41.884;12.534;2024-02-26T11:23:33;7.45;;;2.90;;
33413;SDS011;60055;41.884;12.534;2024-02-26T11:26:02;8.05;;;2.95;;
33413;SDS011;60055;41.884;12.534;2024-02-26T11:28:31;7.90;;;2.45;;
33413;SDS011;60055;41.884;12.534;2024-02-26T11:30:58;6.07;;;2.72;;
33413;SDS011;60055;41.884;12.534;2024-02-26T11:33:25;6.85;;;2.50;;
33413;SDS011;60055;41.884;12.534;2024-02-26T11:35:53;4.93;;;2.28;;
33413;SDS011;60055;41.884;12.534;2024-02-26T11:38:22;5.57;;;1.90;;
33413;SDS011;60055;41.884;12.534;2024-02-26T11:40:51;3.92;;;1.63;;
33413;SDS011;60055;41.884;12.534;2024-02-26T11:43:18;6.55;;;1.77;;
33413;SDS011;60055;41.884;12.534;2024-02-26T11:45:48;3.92;;;1.60;;
33413;SDS011;60055;41.884;12.534;2024-02-26T11:48:19;4.60;;;1.92;;
33413;SDS011;60055;41.884;12.534;2024-02-26T11:50:55;5.78;;;2.03;;
33413;SDS011;60055;41.884;12.534;2024-02-26T11:58:53;10.23;;;2.20;;
33413;SDS011;60055;41.884;12.534;2024-02-26T12:01:37;3.97;;;1.48;;
33413;SDS011;60055;41.884;12.534;2024-02-26T12:04:08;4.95;;;1.90;;
33413;SDS011;60055;41.884;12.534;2024-02-26T12:06:41;6.28;;;2.38;;
33413;SDS011;60055;41.884;12.534;2024-02-26T12:09:08;5.10;;;2.05;;
33413;SDS011;60055;41.884;12.534;2024-02-26T12:11:38;4.00;;;1.30;;
33413;SDS011;60055;41.884;12.534;2024-02-26T12:14:05;5.22;;;1.50;;
33413;SDS011;60055;41.884;12.534;2024-02-26T12:16:35;1.83;;;1.13;;
33413;SDS011;60055;41.884;12.534;2024-02-26T12:19:05;3.92;;;1.40;;
33413;SDS011;60055;41.884;12.534;2024-02-26T12:21:34;4.03;;;1.55;;
33413;SDS011;60055;41.884;12.534;2024-02-26T12:24:10;4.65;;;1.60;;
33413;SDS011;60055;41.884;12.534;2024-02-26T12:26:41;5.03;;;2.03;;
33413;SDS011;60055;41.884;12.534;2024-02-26T12:29:07;5.85;;;1.83;;
33413;SDS011;60055;41.884;12.534;2024-02-26T12:31:33;5.57;;;2.20;;
33413;SDS011;60055;41.884;12.534;2024-02-26T12:34:01;8.60;;;2.53;;
33413;SDS011;60055;41.884;12.534;2024-02-26T12:36:27;10.75;;;2.58;;
33413;SDS011;60055;41.884;12.534;2024-02-26T12:38:53;6.20;;;2.50;;
33413;SDS011;60055;41.884;12.534;2024-02-26T12:41:18;7.47;;;3.35;;
33413;SDS011;60055;41.884;12.534;2024-02-26T12:43:44;5.53;;;3.05;;
33413;SDS011;60055;41.884;12.534;2024-02-26T12:46:11;7.18;;;2.30;;
33413;SDS011;60055;41.884;12.534;2024-02-26T12:48:37;6.82;;;2.28;;
33413;SDS011;60055;41.884;12.534;2024-02-26T12:51:04;4.00;;;1.80;;
33413;SDS011;60055;41.884;12.534;2024-02-26T12:53:30;6.82;;;1.88;;
33413;SDS011;60055;41.884;12.534;2024-02-26T12:55:57;5.75;;;2.20;;
33413;SDS011;60055;41.884;12.534;2024-02-26T12:58:23;5.90;;;2.60;;
33413;SDS011;60055;41.884;12.534;2024-02-26T13:00:53;7.30;;;2.20;;
33413;SDS011;60055;41.884;12.534;2024-02-26T13:03:20;7.90;;;2.50;;
33413;SDS011;60055;41.884;12.534;2024-02-26T13:05:47;6.70;;;2.20;;
33413;SDS011;60055;41.884;12.534;2024-02-26T13:08:20;5.10;;;1.95;;
33413;SDS011;60055;41.884;12.534;2024-02-26T13:10:46;6.50;;;2.05;;
33413;SDS011;60055;41.884;12.534;2024-02-26T13:13:14;3.90;;;1.60;;
33413;SDS011;60055;41.884;12.534;2024-02-26T13:15:40;4.22;;;1.55;;
33413;SDS011;60055;41.884;12.534;2024-02-26T13:18:12;5.28;;;2.00;;
33413;SDS011;60055;41.884;12.534;2024-02-26T13:20:39;7.03;;;1.90;;
33413;SDS011;60055;41.884;12.534;2024-02-26T13:23:10;3.05;;;1.50;;
33413;SDS011;60055;41.884;12.534;2024-02-26T13:25:37;4.10;;;1.40;;
33413;SDS011;60055;41.884;12.534;2024-02-26T13:30:38;6.20;;;1.20;;
33413;SDS011;60055;41.884;12.534;2024-02-26T13:33:10;3.58;;;1.30;;
33413;SDS011;60055;41.884;12.534;2024-02-26T13:35:37;3.33;;;1.40;;
33413;SDS011;60055;41.884;12.534;2024-02-26T13:38:04;3.97;;;1.30;;
33413;SDS011;60055;41.884;12.534;2024-02-26T13:40:30;3.20;;;1.20;;
33413;SDS011;60055;41.884;12.534;2024-02-26T13:42:55;6.50;;;1.83;;
33413;SDS011;60055;41.884;12.534;2024-02-26T13:45:20;4.32;;;1.20;;
33413;SDS011;60055;41.884;12.534;2024-02-26T13:47:46;3.85;;;1.42;;
33413;SDS011;60055;41.884;12.534;2024-02-26T13:50:11;5.43;;;1.55;;
33413;SDS011;60055;41.884;12.534;2024-02-26T13:52:37;5.03;;;1.50;;
33413;SDS011;60055;41.884;12.534;2024-02-26T13:55:02;5.40;;;1.45;;
33413;SDS011;60055;41.884;12.534;2024-02-26T13:57:28;4.00;;;1.60;;
33413;SDS011;60055;41.884;12.534;2024-02-26T13:59:54;4.05;;;1.40;;
33413;SDS011;60055;41.884;12.534;2024-02-26T14:02:20;4.05;;;1.10;;
33413;SDS011;60055;41.884;12.534;2024-02-26T14:04:46;7.50;;;1.23;;
33413;SDS011;60055;41.884;12.534;2024-02-26T14:07:12;5.40;;;1.30;;
33413;SDS011;60055;41.884;12.534;2024-02-26T14:09:37;5.47;;;1.30;;
33413;SDS011;60055;41.884;12.534;2024-02-26T14:12:03;4.13;;;1.50;;
33413;SDS011;60055;41.884;12.534;2024-02-26T14:14:29;7.90;;;1.42;;
33413;SDS011;60055;41.884;12.534;2024-02-26T14:16:57;2.85;;;1.40;;
33413;SDS011;60055;41.884;12.534;2024-02-26T14:19:23;4.95;;;1.52;;
33413;SDS011;60055;41.884;12.534;2024-02-26T14:21:49;5.32;;;1.50;;